sensor_id;sensor_type;location;lat;lon;timestamp;pressure;altitude;pressure_sealevel;temperature;humidity
70521;BME280;58442;52.716;23.560;2023-08-12T00:01:14;102010.62;;;13.99;67.76
70521;BME280;58442;52.716;23.560;2023-08-12T00:03:24;102006.63;;;13.96;67.73
70521;BME280;58442;52.716;23.560;2023-08-12T00:05:25;102008.92;;;13.94;67.74
70521;BME280;58442;52.716;23.560;2023-08-12T00:07:27;102014.38;;;13.94;67.74
70521;BME280;58442;52.716;23.560;2023-08-12T00:09:28;102010.38;;;13.91;67.74
70521;BME280;58442;52.716;23.560;2023-08-12T00:11:39;102009.13;;;13.89;67.70
70521;BME280;58442;52.716;23.560;2023-08-12T00:13:40;102019.26;;;13.88;67.67
70521;BME280;58442;52.716;23.560;2023-08-12T00:15:41;102021.55;;;13.86;67.67
70521;BME280;58442;52.716;23.560;2023-08-12T00:17:44;102027.33;;;13.85;67.67
70521;BME280;58442;52.716;23.560;2023-08-12T00:19:54;102026.08;;;13.82;67.69
70521;BME280;58442;52.716;23.560;2023-08-12T00:21:55;102022.09;;;13.80;67.82
70521;BME280;58442;52.716;23.560;2023-08-12T00:23:56;102026.27;;;13.77;67.85
70521;BME280;58442;52.716;23.560;2023-08-12T00:25:58;102032.09;;;13.76;67.83
70521;BME280;58442;52.716;23.560;2023-08-12T00:28:09;102029.36;;;13.76;67.80
70521;BME280;58442;52.716;23.560;2023-08-12T00:30:11;102027.77;;;13.75;67.77
70521;BME280;58442;52.716;23.560;2023-08-12T00:32:13;102020.70;;;13.74;67.73
70521;BME280;58442;52.716;23.560;2023-08-12T00:34:14;102031.95;;;13.72;67.71
70521;BME280;58442;52.716;23.560;2023-08-12T00:36:23;102026.83;;;13.71;67.72
70521;BME280;58442;52.716;23.560;2023-08-12T00:38:25;102029.45;;;13.67;67.80
70521;BME280;58442;52.716;23.560;2023-08-12T00:40:26;102032.50;;;13.65;67.92
70521;BME280;58442;52.716;23.560;2023-08-12T00:42:28;102037.16;;;13.65;67.92
70521;BME280;58442;52.716;23.560;2023-08-12T00:44:38;102033.98;;;13.63;67.92
70521;BME280;58442;52.716;23.560;2023-08-12T00:46:41;102031.59;;;13.61;68.00
70521;BME280;58442;52.716;23.560;2023-08-12T00:48:42;102031.93;;;13.60;68.00
70521;BME280;58442;52.716;23.560;2023-08-12T00:50:45;102028.41;;;13.59;67.99
70521;BME280;58442;52.716;23.560;2023-08-12T00:52:53;102023.59;;;13.56;68.02
70521;BME280;58442;52.716;23.560;2023-08-12T00:54:54;102024.73;;;13.55;68.09
70521;BME280;58442;52.716;23.560;2023-08-12T00:56:56;102025.88;;;13.54;68.13
70521;BME280;58442;52.716;23.560;2023-08-12T00:59:01;102025.42;;;13.52;68.14
70521;BME280;58442;52.716;23.560;2023-08-12T01:01:08;102025.73;;;13.51;68.13
70521;BME280;58442;52.716;23.560;2023-08-12T01:03:09;102030.39;;;13.50;68.12
70521;BME280;58442;52.716;23.560;2023-08-12T01:05:12;102026.86;;;13.50;68.10
70521;BME280;58442;52.716;23.560;2023-08-12T01:07:14;102021.29;;;13.46;68.10
70521;BME280;58442;52.716;23.560;2023-08-12T01:09:23;102025.48;;;13.44;68.12
70521;BME280;58442;52.716;23.560;2023-08-12T01:11:29;102027.41;;;13.43;68.14
70521;BME280;58442;52.716;23.560;2023-08-12T01:13:46;102032.41;;;13.41;68.14
70521;BME280;58442;52.716;23.560;2023-08-12T01:15:52;102028.44;;;13.38;68.16
70521;BME280;58442;52.716;23.560;2023-08-12T01:17:56;102027.15;;;13.36;68.17
70521;BME280;58442;52.716;23.560;2023-08-12T01:20:00;102026.69;;;13.34;68.15
70521;BME280;58442;52.716;23.560;2023-08-12T01:22:10;102021.42;;;13.29;68.06
70521;BME280;58442;52.716;23.560;2023-08-12T01:24:12;102028.02;;;13.28;68.20
70521;BME280;58442;52.716;23.560;2023-08-12T01:26:13;102034.62;;;13.27;68.20
70521;BME280;58442;52.716;23.560;2023-08-12T01:28:16;102025.98;;;13.25;68.21
70521;BME280;58442;52.716;23.560;2023-08-12T01:30:20;102024.69;;;13.22;68.32
70521;BME280;58442;52.716;23.560;2023-08-12T01:34:46;102032.24;;;13.17;68.51
70521;BME280;58442;52.716;23.560;2023-08-12T01:36:54;102035.66;;;13.13;68.51
70521;BME280;58442;52.716;23.560;2023-08-12T01:38:59;102036.79;;;13.12;68.55
70521;BME280;58442;52.716;23.560;2023-08-12T01:41:01;102028.12;;;13.10;68.68
70521;BME280;58442;52.716;23.560;2023-08-12T01:43:03;102031.98;;;13.09;68.66
70521;BME280;58442;52.716;23.560;2023-08-12T01:45:06;102031.98;;;13.09;68.64
70521;BME280;58442;52.716;23.560;2023-08-12T01:47:09;102027.20;;;13.06;68.65
70521;BME280;58442;52.716;23.560;2023-08-12T01:49:10;102034.93;;;13.04;68.71
70521;BME280;58442;52.716;23.560;2023-08-12T01:51:12;102043.43;;;13.03;68.73
70521;BME280;58442;52.716;23.560;2023-08-12T01:53:13;102042.63;;;13.02;68.71
70521;BME280;58442;52.716;23.560;2023-08-12T01:55:22;102042.51;;;12.99;68.72
70521;BME280;58442;52.716;23.560;2023-08-12T01:57:24;102040.13;;;12.97;68.80
70521;BME280;58442;52.716;23.560;2023-08-12T01:59:25;102038.83;;;12.95;68.86
70521;BME280;58442;52.716;23.560;2023-08-12T02:01:27;102041.10;;;12.93;68.84
70521;BME280;58442;52.716;23.560;2023-08-12T02:03:37;102037.91;;;12.91;68.83
70521;BME280;58442;52.716;23.560;2023-08-12T02:05:39;102040.95;;;12.89;68.87
70521;BME280;58442;52.716;23.560;2023-08-12T02:07:42;102043.22;;;12.87;68.89
70521;BME280;58442;52.716;23.560;2023-08-12T02:09:44;102040.49;;;12.87;68.89
70521;BME280;58442;52.716;23.560;2023-08-12T02:11:52;102036.80;;;12.83;68.89
70521;BME280;58442;52.716;23.560;2023-08-12T02:13:53;102037.94;;;12.82;68.94
70521;BME280;58442;52.716;23.560;2023-08-12T02:15:54;102034.75;;;12.80;68.89
70521;BME280;58442;52.716;23.560;2023-08-12T02:17:56;102039.75;;;12.78;68.92
70521;BME280;58442;52.716;23.560;2023-08-12T02:20:07;102043.13;;;12.75;68.98
70521;BME280;58442;52.716;23.560;2023-08-12T02:22:09;102035.62;;;12.72;69.05
70521;BME280;58442;52.716;23.560;2023-08-12T02:24:11;102036.74;;;12.71;69.05
70521;BME280;58442;52.716;23.560;2023-08-12T02:26:12;102035.95;;;12.70;69.04
70521;BME280;58442;52.716;23.560;2023-08-12T02:28:21;102038.06;;;12.65;69.07
70521;BME280;58442;52.716;23.560;2023-08-12T02:30:23;102046.58;;;12.63;69.17
70521;BME280;58442;52.716;23.560;2023-08-12T02:32:24;102043.35;;;12.61;69.18
70521;BME280;58442;52.716;23.560;2023-08-12T02:34:26;102036.31;;;12.60;69.17
70521;BME280;58442;52.716;23.560;2023-08-12T02:36:36;102035.84;;;12.58;69.14
70521;BME280;58442;52.716;23.560;2023-08-12T02:38:38;102036.19;;;12.56;69.14
70521;BME280;58442;52.716;23.560;2023-08-12T02:40:39;102034.55;;;12.55;69.11
70521;BME280;58442;52.716;23.560;2023-08-12T02:42:41;102036.03;;;12.53;69.07
70521;BME280;58442;52.716;23.560;2023-08-12T02:44:51;102033.16;;;12.49;69.06
70521;BME280;58442;52.716;23.560;2023-08-12T02:46:53;102036.99;;;12.48;69.09
70521;BME280;58442;52.716;23.560;2023-08-12T02:48:54;102032.21;;;12.45;69.17
70521;BME280;58442;52.716;23.560;2023-08-12T02:50:55;102039.93;;;12.43;69.25
70521;BME280;58442;52.716;23.560;2023-08-12T02:53:07;102033.98;;;12.41;69.32
70521;BME280;58442;52.716;23.560;2023-08-12T02:55:09;102048.74;;;12.40;69.41
70521;BME280;58442;52.716;23.560;2023-08-12T02:57:10;102039.30;;;12.38;69.42
70521;BME280;58442;52.716;23.560;2023-08-12T02:59:11;102039.30;;;12.38;69.39
70521;BME280;58442;52.716;23.560;2023-08-12T03:01:22;102041.87;;;12.34;69.37
70521;BME280;58442;52.716;23.560;2023-08-12T03:03:23;102053.91;;;12.33;69.43
70521;BME280;58442;52.716;23.560;2023-08-12T03:05:25;102044.94;;;12.32;69.46
70521;BME280;58442;52.716;23.560;2023-08-12T03:07:26;102047.99;;;12.31;69.43
70521;BME280;58442;52.716;23.560;2023-08-12T03:09:36;102044.80;;;12.29;69.39
70521;BME280;58442;52.716;23.560;2023-08-12T03:11:37;102046.73;;;12.28;69.37
70521;BME280;58442;52.716;23.560;2023-08-12T03:13:38;102057.63;;;12.28;69.34
70521;BME280;58442;52.716;23.560;2023-08-12T03:15:40;102037.73;;;12.28;69.31
70521;BME280;58442;52.716;23.560;2023-08-12T03:17:51;102038.85;;;12.27;69.32
70521;BME280;58442;52.716;23.560;2023-08-12T03:19:52;102039.98;;;12.26;69.33
70521;BME280;58442;52.716;23.560;2023-08-12T03:21:55;102051.55;;;12.23;69.34
70521;BME280;58442;52.716;23.560;2023-08-12T03:23:56;102048.03;;;12.22;69.37
70521;BME280;58442;52.716;23.560;2023-08-12T03:26:05;102043.68;;;12.21;69.39
70521;BME280;58442;52.716;23.560;2023-08-12T03:28:07;102048.66;;;12.19;69.44
70521;BME280;58442;52.716;23.560;2023-08-12T03:30:10;102051.72;;;12.18;69.49
70521;BME280;58442;52.716;23.560;2023-08-12T03:32:11;102045.47;;;12.17;69.50
70521;BME280;58442;52.716;23.560;2023-08-12T03:34:20;102048.53;;;12.16;69.54
70521;BME280;58442;52.716;23.560;2023-08-12T03:36:22;102052.38;;;12.15;69.62
70521;BME280;58442;52.716;23.560;2023-08-12T03:38:23;102056.21;;;12.14;69.71
70521;BME280;58442;52.716;23.560;2023-08-12T03:40:24;102053.82;;;12.12;69.77
70521;BME280;58442;52.716;23.560;2023-08-12T03:42:35;102055.75;;;12.12;69.89
70521;BME280;58442;52.716;23.560;2023-08-12T03:44:37;102056.88;;;12.11;70.00
70521;BME280;58442;52.716;23.560;2023-08-12T03:46:38;102061.20;;;12.12;70.06
70521;BME280;58442;52.716;23.560;2023-08-12T03:48:39;102052.22;;;12.11;70.11
70521;BME280;58442;52.716;23.560;2023-08-12T03:50:50;102055.75;;;12.12;70.16
70521;BME280;58442;52.716;23.560;2023-08-12T03:52:51;102055.75;;;12.12;70.18
70521;BME280;58442;52.716;23.560;2023-08-12T03:54:53;102057.84;;;12.15;70.16
70521;BME280;58442;52.716;23.560;2023-08-12T03:56:54;102059.73;;;12.14;70.13
70521;BME280;58442;52.716;23.560;2023-08-12T03:59:05;102056.21;;;12.14;70.18
70521;BME280;58442;52.716;23.560;2023-08-12T04:01:06;102058.95;;;12.14;70.26
70521;BME280;58442;52.716;23.560;2023-08-12T04:03:08;102064.08;;;12.15;70.31
70521;BME280;58442;52.716;23.560;2023-08-12T04:05:10;102056.71;;;12.16;70.33
70521;BME280;58442;52.716;23.560;2023-08-12T04:07:20;102061.83;;;12.17;70.34
70521;BME280;58442;52.716;23.560;2023-08-12T04:09:21;102065.36;;;12.18;70.35
70521;BME280;58442;52.716;23.560;2023-08-12T04:11:22;102067.75;;;12.19;70.34
70521;BME280;58442;52.716;23.560;2023-08-12T04:13:24;102063.09;;;12.20;70.33
70521;BME280;58442;52.716;23.560;2023-08-12T04:15:35;102069.04;;;12.22;70.35
70521;BME280;58442;52.716;23.560;2023-08-12T04:17:36;102071.44;;;12.23;70.43
70521;BME280;58442;52.716;23.560;2023-08-12T04:19:38;102058.95;;;12.22;70.57
70521;BME280;58442;52.716;23.560;2023-08-12T04:21:39;102070.77;;;12.26;70.55
70521;BME280;58442;52.716;23.560;2023-08-12T04:23:49;102065.81;;;12.28;70.60
70521;BME280;58442;52.716;23.560;2023-08-12T04:25:52;102066.27;;;12.30;70.63
70521;BME280;58442;52.716;23.560;2023-08-12T04:27:55;102070.27;;;12.33;70.70
70521;BME280;58442;52.716;23.560;2023-08-12T04:29:56;102062.55;;;12.35;70.75
70521;BME280;58442;52.716;23.560;2023-08-12T04:32:05;102065.77;;;12.37;70.82
70521;BME280;58442;52.716;23.560;2023-08-12T04:34:06;102067.03;;;12.40;70.94
70521;BME280;58442;52.716;23.560;2023-08-12T04:36:08;102069.13;;;12.43;71.03
70521;BME280;58442;52.716;23.560;2023-08-12T04:38:09;102067.66;;;12.45;71.05
70521;BME280;58442;52.716;23.560;2023-08-12T04:40:19;102066.35;;;12.51;71.13
70521;BME280;58442;52.716;23.560;2023-08-12T04:42:23;102073.07;;;12.54;71.27
70521;BME280;58442;52.716;23.560;2023-08-12T04:44:24;102065.05;;;12.57;71.39
70521;BME280;58442;52.716;23.560;2023-08-12T04:46:25;102063.73;;;12.64;71.52
70521;BME280;58442;52.716;23.560;2023-08-12T04:48:34;102068.34;;;12.72;71.65
70521;BME280;58442;52.716;23.560;2023-08-12T04:50:35;102064.30;;;12.78;71.84
70521;BME280;58442;52.716;23.560;2023-08-12T04:52:37;102069.24;;;12.84;71.89
70521;BME280;58442;52.716;23.560;2023-08-12T04:54:38;102061.64;;;12.90;71.91
70521;BME280;58442;52.716;23.560;2023-08-12T04:56:49;102062.75;;;12.98;71.96
70521;BME280;58442;52.716;23.560;2023-08-12T04:58:50;102062.23;;;13.04;72.08
70521;BME280;58442;52.716;23.560;2023-08-12T05:00:52;102061.70;;;13.11;72.14
70521;BME280;58442;52.716;23.560;2023-08-12T05:02:53;102068.88;;;13.15;72.14
70521;BME280;58442;52.716;23.560;2023-08-12T05:05:04;102064.84;;;13.22;72.22
70521;BME280;58442;52.716;23.560;2023-08-12T05:07:06;102062.72;;;13.27;72.32
70521;BME280;58442;52.716;23.560;2023-08-12T05:09:07;102071.97;;;13.35;72.40
70521;BME280;58442;52.716;23.560;2023-08-12T05:11:09;102070.30;;;13.43;72.42
70521;BME280;58442;52.716;23.560;2023-08-12T05:13:19;102062.38;;;13.50;72.49
70521;BME280;58442;52.716;23.560;2023-08-12T05:15:20;102076.63;;;13.55;72.65
70521;BME280;58442;52.716;23.560;2023-08-12T05:17:22;102071.43;;;13.62;72.75
70521;BME280;58442;52.716;23.560;2023-08-12T05:19:23;102073.28;;;13.71;72.80
70521;BME280;58442;52.716;23.560;2023-08-12T05:21:33;102073.53;;;13.78;72.90
70521;BME280;58442;52.716;23.560;2023-08-12T05:23:35;102072.20;;;13.84;73.05
70521;BME280;58442;52.716;23.560;2023-08-12T05:25:38;102063.45;;;13.90;73.14
70521;BME280;58442;52.716;23.560;2023-08-12T05:27:40;102069.16;;;13.98;73.15
70521;BME280;58442;52.716;23.560;2023-08-12T05:29:48;102064.73;;;14.05;73.14
70521;BME280;58442;52.716;23.560;2023-08-12T05:31:50;102068.51;;;14.13;73.21
70521;BME280;58442;52.716;23.560;2023-08-12T05:33:51;102066.00;;;14.20;73.26
70521;BME280;58442;52.716;23.560;2023-08-12T05:35:53;102065.13;;;14.28;73.26
70521;BME280;58442;52.716;23.560;2023-08-12T05:38:03;102062.29;;;14.37;73.32
70521;BME280;58442;52.716;23.560;2023-08-12T05:40:05;102058.66;;;14.45;73.39
70521;BME280;58442;52.716;23.560;2023-08-12T05:42:09;102062.78;;;14.51;73.40
70521;BME280;58442;52.716;23.560;2023-08-12T05:44:10;102051.63;;;14.56;73.38
70521;BME280;58442;52.716;23.560;2023-08-12T05:46:18;102061.65;;;14.64;73.41
70521;BME280;58442;52.716;23.560;2023-08-12T05:48:19;102057.55;;;14.70;73.47
70521;BME280;58442;52.716;23.560;2023-08-12T05:50:21;102050.71;;;14.76;73.48
70521;BME280;58442;52.716;23.560;2023-08-12T05:52:22;102059.14;;;14.84;73.46
70521;BME280;58442;52.716;23.560;2023-08-12T05:54:33;102047.26;;;14.92;73.48
70521;BME280;58442;52.716;23.560;2023-08-12T05:56:34;102055.34;;;15.00;73.52
70521;BME280;58442;52.716;23.560;2023-08-12T05:58:35;102050.52;;;15.10;73.49
70521;BME280;58442;52.716;23.560;2023-08-12T06:00:37;102053.94;;;15.19;73.46
70521;BME280;58442;52.716;23.560;2023-08-12T06:02:48;102051.85;;;15.28;73.42
70521;BME280;58442;52.716;23.560;2023-08-12T06:04:49;102047.37;;;15.36;73.42
70521;BME280;58442;52.716;23.560;2023-08-12T06:06:50;102047.94;;;15.41;73.38
70521;BME280;58442;52.716;23.560;2023-08-12T06:08:52;102052.38;;;15.46;73.34
70521;BME280;58442;52.716;23.560;2023-08-12T06:11:02;102055.31;;;15.53;73.35
70521;BME280;58442;52.716;23.560;2023-08-12T06:13:04;102050.82;;;15.60;73.40
70521;BME280;58442;52.716;23.560;2023-08-12T06:15:06;102045.22;;;15.69;73.38
70521;BME280;58442;52.716;23.560;2023-08-12T06:17:08;102043.14;;;15.78;73.30
70521;BME280;58442;52.716;23.560;2023-08-12T06:19:17;102041.03;;;15.88;73.20
70521;BME280;58442;52.716;23.560;2023-08-12T06:21:19;102047.13;;;15.97;73.16
70521;BME280;58442;52.716;23.560;2023-08-12T06:23:20;102044.57;;;16.04;73.08
70521;BME280;58442;52.716;23.560;2023-08-12T06:25:21;102034.93;;;16.10;72.98
70521;BME280;58442;52.716;23.560;2023-08-12T06:27:32;102035.84;;;16.14;72.95
70521;BME280;58442;52.716;23.560;2023-08-12T06:29:33;102035.55;;;16.19;72.97
70521;BME280;58442;52.716;23.560;2023-08-12T06:31:35;102032.98;;;16.26;72.91
70521;BME280;58442;52.716;23.560;2023-08-12T06:33:36;102037.06;;;16.32;72.81
70521;BME280;58442;52.716;23.560;2023-08-12T06:35:47;102032.10;;;16.38;72.75
70521;BME280;58442;52.716;23.560;2023-08-12T06:37:48;102035.74;;;16.42;72.78
70521;BME280;58442;52.716;23.560;2023-08-12T06:39:50;102037.41;;;16.47;72.78
70521;BME280;58442;52.716;23.560;2023-08-12T06:41:51;102035.98;;;16.53;72.75
70521;BME280;58442;52.716;23.560;2023-08-12T06:44:02;102031.13;;;16.62;72.71
70521;BME280;58442;52.716;23.560;2023-08-12T06:46:05;102030.58;;;16.72;72.65
70521;BME280;58442;52.716;23.560;2023-08-12T06:48:06;102029.59;;;16.80;72.56
70521;BME280;58442;52.716;23.560;2023-08-12T06:50:08;102040.73;;;16.87;72.46
70521;BME280;58442;52.716;23.560;2023-08-12T06:52:16;102032.21;;;16.92;72.46
70521;BME280;58442;52.716;23.560;2023-08-12T06:54:18;102028.47;;;17.01;72.50
70521;BME280;58442;52.716;23.560;2023-08-12T06:56:19;102033.84;;;17.13;72.40
70521;BME280;58442;52.716;23.560;2023-08-12T06:58:21;102035.73;;;17.28;72.20
70521;BME280;58442;52.716;23.560;2023-08-12T07:00:31;102028.93;;;17.41;71.99
70521;BME280;58442;52.716;23.560;2023-08-12T07:02:32;102028.04;;;17.57;71.74
70521;BME280;58442;52.716;23.560;2023-08-12T07:04:34;102026.30;;;17.68;71.55
70521;BME280;58442;52.716;23.560;2023-08-12T07:06:35;102022.20;;;17.78;71.36
70521;BME280;58442;52.716;23.560;2023-08-12T07:08:46;102019.26;;;17.90;71.14
70521;BME280;58442;52.716;23.560;2023-08-12T07:10:47;102028.14;;;18.02;70.91
70521;BME280;58442;52.716;23.560;2023-08-12T07:12:49;102019.33;;;18.16;70.60
70521;BME280;58442;52.716;23.560;2023-08-12T07:14:50;102020.35;;;18.31;70.30
70521;BME280;58442;52.716;23.560;2023-08-12T07:17:01;102014.24;;;18.41;70.05
70521;BME280;58442;52.716;23.560;2023-08-12T07:19:02;102012.00;;;18.50;69.84
70521;BME280;58442;52.716;23.560;2023-08-12T07:22:54;102012.22;;;18.65;69.52
70521;BME280;58442;52.716;23.560;2023-08-12T07:24:56;102006.84;;;18.72;69.36
70521;BME280;58442;52.716;23.560;2023-08-12T07:27:01;102011.72;;;18.82;69.13
70521;BME280;58442;52.716;23.560;2023-08-12T07:29:09;102012.63;;;18.93;68.89
70521;BME280;58442;52.716;23.560;2023-08-12T07:31:10;102017.13;;;19.05;68.60
70521;BME280;58442;52.716;23.560;2023-08-12T07:33:11;102013.77;;;19.19;68.13
70521;BME280;58442;52.716;23.560;2023-08-12T07:35:13;102008.80;;;19.31;67.70
70521;BME280;58442;52.716;23.560;2023-08-12T07:37:23;102017.62;;;19.44;67.25
70521;BME280;58442;52.716;23.560;2023-08-12T07:39:25;102018.11;;;19.53;66.84
70521;BME280;58442;52.716;23.560;2023-08-12T07:41:27;102015.51;;;19.64;66.52
70521;BME280;58442;52.716;23.560;2023-08-12T07:43:29;102013.27;;;19.77;66.14
70521;BME280;58442;52.716;23.560;2023-08-12T07:45:38;102012.20;;;19.88;65.76
70521;BME280;58442;52.716;23.560;2023-08-12T07:47:39;102013.88;;;20.00;65.41
70521;BME280;58442;52.716;23.560;2023-08-12T07:49:42;102006.85;;;20.10;65.08
70521;BME280;58442;52.716;23.560;2023-08-12T07:51:43;102009.67;;;20.17;64.83
70521;BME280;58442;52.716;23.560;2023-08-12T07:53:53;102001.44;;;20.24;64.61
70521;BME280;58442;52.716;23.560;2023-08-12T07:55:54;101998.38;;;20.33;64.36
70521;BME280;58442;52.716;23.560;2023-08-12T07:57:55;102002.38;;;20.39;64.15
70521;BME280;58442;52.716;23.560;2023-08-12T07:59:57;102000.09;;;20.48;63.95
70521;BME280;58442;52.716;23.560;2023-08-12T08:02:07;102000.96;;;20.59;63.74
70521;BME280;58442;52.716;23.560;2023-08-12T08:04:09;102000.62;;;20.71;63.45
70521;BME280;58442;52.716;23.560;2023-08-12T08:06:10;101997.53;;;20.84;63.04
70521;BME280;58442;52.716;23.560;2023-08-12T08:08:11;101988.52;;;20.97;62.65
70521;BME280;58442;52.716;23.560;2023-08-12T08:10:22;101983.05;;;21.08;62.30
70521;BME280;58442;52.716;23.560;2023-08-12T08:12:24;101987.02;;;21.18;62.03
70521;BME280;58442;52.716;23.560;2023-08-12T08:14:25;101989.08;;;21.28;61.63
70521;BME280;58442;52.716;23.560;2023-08-12T08:16:28;101989.48;;;21.37;61.33
70521;BME280;58442;52.716;23.560;2023-08-12T08:18:37;101987.15;;;21.50;61.00
70521;BME280;58442;52.716;23.560;2023-08-12T08:20:41;101988.74;;;21.62;60.70
70521;BME280;58442;52.716;23.560;2023-08-12T08:22:42;101984.82;;;21.73;60.17
70521;BME280;58442;52.716;23.560;2023-08-12T08:24:44;101980.49;;;21.83;59.84
70521;BME280;58442;52.716;23.560;2023-08-12T08:26:51;101984.45;;;21.96;59.52
70521;BME280;58442;52.716;23.560;2023-08-12T08:28:53;101984.85;;;22.09;59.18
70521;BME280;58442;52.716;23.560;2023-08-12T08:30:55;101980.12;;;22.20;58.61
70521;BME280;58442;52.716;23.560;2023-08-12T08:32:56;101980.90;;;22.31;58.34
70521;BME280;58442;52.716;23.560;2023-08-12T08:35:06;101982.85;;;22.42;57.93
70521;BME280;58442;52.716;23.560;2023-08-12T08:37:08;101975.72;;;22.51;57.55
70521;BME280;58442;52.716;23.560;2023-08-12T08:39:09;101980.05;;;22.56;57.40
70521;BME280;58442;52.716;23.560;2023-08-12T08:41:11;101973.70;;;22.66;57.15
70521;BME280;58442;52.716;23.560;2023-08-12T08:43:21;101975.64;;;22.80;56.84
70521;BME280;58442;52.716;23.560;2023-08-12T08:45:24;101981.57;;;22.92;56.22
70521;BME280;58442;52.716;23.560;2023-08-12T08:47:27;101975.96;;;23.03;56.10
70521;BME280;58442;52.716;23.560;2023-08-12T08:49:30;101976.72;;;23.14;55.83
70521;BME280;58442;52.716;23.560;2023-08-12T08:51:35;101976.68;;;23.22;55.65
70521;BME280;58442;52.716;23.560;2023-08-12T08:53:41;101974.66;;;23.26;55.47
70521;BME280;58442;52.716;23.560;2023-08-12T08:55:43;101975.41;;;23.33;55.16
70521;BME280;58442;52.716;23.560;2023-08-12T08:57:45;101969.44;;;23.42;54.95
70521;BME280;58442;52.716;23.560;2023-08-12T08:59:50;101973.32;;;23.55;54.72
70521;BME280;58442;52.716;23.560;2023-08-12T09:01:53;101985.14;;;23.70;54.33
70521;BME280;58442;52.716;23.560;2023-08-12T09:03:57;101975.59;;;23.74;53.89
70521;BME280;58442;52.716;23.560;2023-08-12T09:05:59;101983.41;;;23.87;53.61
70521;BME280;58442;52.716;23.560;2023-08-12T09:08:05;101981.72;;;24.00;53.35
70521;BME280;58442;52.716;23.560;2023-08-12T09:10:12;101973.30;;;24.11;52.86
70521;BME280;58442;52.716;23.560;2023-08-12T09:12:15;101975.19;;;24.21;52.52
70521;BME280;58442;52.716;23.560;2023-08-12T09:14:17;101976.33;;;24.27;52.24
70521;BME280;58442;52.716;23.560;2023-08-12T09:16:19;101966.74;;;24.35;52.20
70521;BME280;58442;52.716;23.560;2023-08-12T09:18:21;101966.27;;;24.44;51.89
70521;BME280;58442;52.716;23.560;2023-08-12T09:20:25;101967.77;;;24.52;51.65
70521;BME280;58442;52.716;23.560;2023-08-12T09:22:27;101960.51;;;24.62;51.51
70521;BME280;58442;52.716;23.560;2023-08-12T09:24:34;101963.60;;;24.71;51.31
70521;BME280;58442;52.716;23.560;2023-08-12T09:26:36;101958.68;;;24.82;51.12
70521;BME280;58442;52.716;23.560;2023-08-12T09:28:37;101960.55;;;24.92;50.66
70521;BME280;58442;52.716;23.560;2023-08-12T09:30:39;101964.03;;;25.00;50.42
70521;BME280;58442;52.716;23.560;2023-08-12T09:32:58;101949.70;;;25.05;50.21
70521;BME280;58442;52.716;23.560;2023-08-12T09:35:15;101953.55;;;25.11;49.93
70521;BME280;58442;52.716;23.560;2023-08-12T09:37:18;101960.73;;;25.12;49.79
70521;BME280;58442;52.716;23.560;2023-08-12T09:39:20;101962.30;;;25.13;49.78
70521;BME280;58442;52.716;23.560;2023-08-12T09:41:22;101963.41;;;25.19;49.73
70521;BME280;58442;52.716;23.560;2023-08-12T09:43:27;101956.46;;;25.31;49.65
70521;BME280;58442;52.716;23.560;2023-08-12T09:45:33;101967.34;;;25.22;49.82
70521;BME280;58442;52.716;23.560;2023-08-12T09:47:35;101975.09;;;25.03;49.90
70521;BME280;58442;52.716;23.560;2023-08-12T09:49:38;101957.46;;;24.83;49.95
70521;BME280;58442;52.716;23.560;2023-08-12T09:51:40;101968.48;;;24.60;50.26
70521;BME280;58442;52.716;23.560;2023-08-12T09:53:45;101962.29;;;24.45;50.39
70521;BME280;58442;52.716;23.560;2023-08-12T09:55:52;101954.45;;;24.29;50.41
70521;BME280;58442;52.716;23.560;2023-08-12T09:57:55;101952.61;;;24.15;50.58
70521;BME280;58442;52.716;23.560;2023-08-12T09:59:58;101955.00;;;24.17;50.53
70521;BME280;58442;52.716;23.560;2023-08-12T10:01:59;101950.87;;;24.32;50.17
70521;BME280;58442;52.716;23.560;2023-08-12T10:04:01;101955.48;;;24.49;49.76
70521;BME280;58442;52.716;23.560;2023-08-12T10:06:07;101952.16;;;24.62;49.50
70521;BME280;58442;52.716;23.560;2023-08-12T10:08:09;101959.09;;;24.46;49.92
70521;BME280;58442;52.716;23.560;2023-08-12T10:10:12;101950.96;;;24.63;49.41
70521;BME280;58442;52.716;23.560;2023-08-12T10:12:15;101946.52;;;24.69;49.07
70521;BME280;58442;52.716;23.560;2023-08-12T10:14:17;101943.79;;;24.65;49.16
70521;BME280;58442;52.716;23.560;2023-08-12T10:16:23;101936.76;;;24.88;48.80
70521;BME280;58442;52.716;23.560;2023-08-12T10:18:25;101936.44;;;24.82;49.02
70521;BME280;58442;52.716;23.560;2023-08-12T10:20:29;101940.93;;;24.72;49.21
70521;BME280;58442;52.716;23.560;2023-08-12T10:22:33;101945.28;;;24.73;49.02
70521;BME280;58442;52.716;23.560;2023-08-12T10:24:39;101934.34;;;24.59;49.26
70521;BME280;58442;52.716;23.560;2023-08-12T10:26:42;101943.96;;;24.51;49.25
70521;BME280;58442;52.716;23.560;2023-08-12T10:28:44;101939.75;;;24.70;48.86
70521;BME280;58442;52.716;23.560;2023-08-12T10:30:46;101933.13;;;24.91;48.48
70521;BME280;58442;52.716;23.560;2023-08-12T10:32:52;101928.95;;;25.09;48.30
70521;BME280;58442;52.716;23.560;2023-08-12T10:34:57;101931.91;;;25.26;48.01
70521;BME280;58442;52.716;23.560;2023-08-12T10:37:02;101930.06;;;25.43;47.85
70521;BME280;58442;52.716;23.560;2023-08-12T10:39:08;101926.02;;;25.47;47.92
70521;BME280;58442;52.716;23.560;2023-08-12T10:41:20;101927.02;;;25.33;48.09
70521;BME280;58442;52.716;23.560;2023-08-12T10:43:48;101915.32;;;25.19;48.13